createdAt,value
2017-10-16T00:00:46.275Z,19
2017-10-16T00:01:48.652Z,19
2017-10-16T00:02:51.036Z,18.9
2017-10-16T00:03:53.752Z,19
2017-10-16T00:04:56.134Z,18.9
2017-10-16T00:05:58.522Z,18.9
2017-10-16T00:07:00.903Z,18.9
2017-10-16T00:08:03.275Z,18.9
2017-10-16T00:09:05.661Z,18.9
2017-10-16T00:10:08.036Z,18.9
2017-10-16T00:11:10.431Z,18.9
2017-10-16T00:12:13.163Z,18.8
2017-10-16T00:13:15.533Z,18.8
2017-10-16T00:14:17.910Z,18.8
2017-10-16T00:15:20.290Z,18.8
2017-10-16T00:16:22.671Z,18.8
2017-10-16T00:17:25.047Z,18.8
2017-10-16T00:18:27.425Z,18.8
2017-10-16T00:19:29.808Z,18.7
2017-10-16T00:20:32.202Z,18.7
2017-10-16T00:21:34.584Z,18.8
2017-10-16T00:22:37.297Z,18.7
2017-10-16T00:23:39.677Z,18.7
2017-10-16T00:24:42.403Z,18.7
2017-10-16T00:25:44.797Z,18.7
2017-10-16T00:26:47.171Z,18.7
2017-10-16T00:27:49.893Z,18.7
2017-10-16T00:28:52.276Z,18.7
2017-10-16T00:29:54.675Z,18.7
2017-10-16T00:30:57.048Z,18.7
2017-10-16T00:31:59.781Z,18.7
2017-10-16T00:33:02.159Z,18.7
2017-10-16T00:34:04.540Z,18.7
2017-10-16T00:35:06.913Z,18.6
2017-10-16T00:36:09.297Z,18.7
2017-10-16T00:37:11.676Z,18.7
2017-10-16T00:38:14.063Z,18.6
2017-10-16T00:39:16.822Z,18.7
2017-10-16T00:40:19.201Z,18.7
2017-10-16T00:41:21.588Z,18.7
2017-10-16T00:42:23.975Z,18.7
2017-10-16T00:43:26.349Z,18.6
2017-10-16T00:44:28.723Z,18.6
2017-10-16T00:45:31.099Z,18.6
2017-10-16T00:46:33.482Z,18.6
2017-10-16T00:47:35.849Z,18.6
2017-10-16T00:48:38.241Z,18.6
2017-10-16T00:49:40.618Z,18.5
2017-10-16T00:50:43.001Z,18.5
2017-10-16T00:51:45.385Z,18.5
2017-10-16T00:52:47.762Z,18.5
2017-10-16T00:53:50.134Z,18.5
2017-10-16T00:54:52.881Z,18.5
2017-10-16T00:55:55.253Z,18.5
2017-10-16T00:56:57.634Z,18.5
2017-10-16T00:58:00.018Z,18.5
2017-10-16T00:59:02.739Z,18.5
2017-10-16T01:00:05.119Z,18.4
2017-10-16T01:01:07.503Z,18.4
2017-10-16T01:02:09.886Z,18.4
2017-10-16T01:03:12.248Z,18.4
2017-10-16T01:04:14.633Z,18.4
2017-10-16T01:05:17.026Z,18.4
2017-10-16T01:06:19.405Z,18.4
2017-10-16T01:07:22.133Z,18.4
2017-10-16T01:08:24.523Z,18.4
2017-10-16T01:09:26.893Z,18.3
2017-10-16T01:10:29.286Z,18.3
2017-10-16T01:11:32.006Z,18.3
2017-10-16T01:12:34.397Z,18.3
2017-10-16T01:13:36.788Z,18.3
2017-10-16T01:14:39.170Z,18.3
2017-10-16T01:15:41.544Z,18.3
2017-10-16T01:16:43.926Z,18.2
2017-10-16T01:17:46.645Z,18.3
2017-10-16T01:18:49.028Z,18.2
2017-10-16T01:19:51.406Z,18.2
2017-10-16T01:20:53.793Z,18.2
2017-10-16T01:21:56.163Z,18.2
2017-10-16T01:22:58.544Z,18.2
2017-10-16T01:24:00.927Z,18.2
2017-10-16T01:25:03.312Z,18.2
2017-10-16T01:26:05.685Z,18.1
2017-10-16T01:27:08.063Z,18.2
2017-10-16T01:28:10.437Z,18.1
2017-10-16T01:29:12.822Z,18.1
2017-10-16T01:30:15.199Z,18.1
2017-10-16T01:31:17.576Z,18.1
2017-10-16T01:32:19.961Z,18
2017-10-16T01:33:22.342Z,18
2017-10-16T01:34:24.719Z,18
2017-10-16T01:35:27.097Z,18
2017-10-16T01:36:29.838Z,18
2017-10-16T01:37:32.217Z,18
2017-10-16T01:38:34.947Z,18
2017-10-16T01:39:37.326Z,17.9
2017-10-16T01:40:39.700Z,17.9
2017-10-16T01:41:42.088Z,18
2017-10-16T01:42:44.818Z,17.9
2017-10-16T01:43:47.183Z,17.9
2017-10-16T01:44:49.561Z,17.9
2017-10-16T01:45:51.943Z,17.9
2017-10-16T01:46:54.321Z,17.9
2017-10-16T01:47:56.693Z,17.9
2017-10-16T01:48:59.077Z,17.9
2017-10-16T01:50:01.457Z,17.9
2017-10-16T01:51:03.846Z,17.9
2017-10-16T01:52:06.221Z,17.9
2017-10-16T01:53:08.589Z,17.8
2017-10-16T01:54:10.973Z,17.8
2017-10-16T01:55:13.355Z,17.8
2017-10-16T01:56:15.733Z,17.9
2017-10-16T01:57:18.113Z,17.8
2017-10-16T01:58:20.491Z,17.8
2017-10-16T01:59:22.866Z,17.8
2017-10-16T02:00:25.256Z,17.8
2017-10-16T02:01:27.637Z,17.8
2017-10-16T02:02:30.011Z,17.8
2017-10-16T02:03:32.762Z,17.8
2017-10-16T02:04:35.135Z,17.8
2017-10-16T02:05:37.513Z,17.8
2017-10-16T02:06:39.896Z,17.8
2017-10-16T02:07:42.281Z,17.8
2017-10-16T02:08:44.655Z,17.8
2017-10-16T02:09:47.043Z,17.8
2017-10-16T02:10:49.774Z,17.7
2017-10-16T02:11:52.149Z,17.8
2017-10-16T02:12:54.529Z,17.8
2017-10-16T02:13:56.903Z,17.8
2017-10-16T02:14:59.282Z,17.8
2017-10-16T02:16:01.672Z,17.8
2017-10-16T02:17:04.043Z,17.7
2017-10-16T02:18:06.420Z,17.7
2017-10-16T02:19:08.815Z,17.7
2017-10-16T02:20:11.191Z,17.7
2017-10-16T02:21:13.560Z,17.8
2017-10-16T02:22:16.291Z,17.8
2017-10-16T02:23:18.674Z,17.8
2017-10-16T02:24:21.058Z,17.8
2017-10-16T02:25:23.434Z,17.8
2017-10-16T02:26:25.802Z,17.8
2017-10-16T02:27:28.543Z,17.7
2017-10-16T02:28:30.930Z,17.8
2017-10-16T02:29:33.302Z,17.8
2017-10-16T02:30:35.675Z,17.8
2017-10-16T02:31:38.062Z,17.8
2017-10-16T02:32:40.442Z,17.7
2017-10-16T02:33:42.813Z,17.7
2017-10-16T02:34:45.197Z,17.7
2017-10-16T02:35:47.580Z,17.7
2017-10-16T02:36:49.960Z,17.7
2017-10-16T02:37:52.341Z,17.7
2017-10-16T02:38:54.716Z,17.7
2017-10-16T02:39:57.449Z,17.7
2017-10-16T02:41:00.229Z,17.7
2017-10-16T02:42:02.610Z,17.7
2017-10-16T02:43:04.984Z,17.7
2017-10-16T02:44:07.361Z,17.7
2017-10-16T02:45:09.741Z,17.7
2017-10-16T02:46:12.113Z,17.7
2017-10-16T02:47:14.492Z,17.7
2017-10-16T02:48:16.869Z,17.7
2017-10-16T02:49:19.253Z,17.7
2017-10-16T02:50:21.629Z,17.7
2017-10-16T02:51:24.014Z,17.7
2017-10-16T02:52:26.383Z,17.6
2017-10-16T02:53:28.769Z,17.6
2017-10-16T02:54:31.488Z,17.6
2017-10-16T02:55:33.866Z,17.6
2017-10-16T02:56:36.596Z,17.6
2017-10-16T02:57:38.986Z,17.6
2017-10-16T02:58:41.341Z,17.6
2017-10-16T02:59:43.726Z,17.6
2017-10-16T03:00:46.460Z,17.6
2017-10-16T03:01:48.838Z,17.6
2017-10-16T03:02:51.564Z,17.6
2017-10-16T03:03:53.949Z,17.6
2017-10-16T03:04:56.318Z,17.6
2017-10-16T03:05:59.048Z,17.6
2017-10-16T03:07:01.437Z,17.6
2017-10-16T03:08:03.803Z,17.6
2017-10-16T03:09:06.182Z,17.6
2017-10-16T03:10:08.560Z,17.6
2017-10-16T03:11:11.288Z,17.6
2017-10-16T03:12:13.674Z,17.6
2017-10-16T03:13:16.046Z,17.6
2017-10-16T03:14:18.432Z,17.6
2017-10-16T03:15:21.163Z,17.6
2017-10-16T03:16:23.885Z,17.6
2017-10-16T03:17:26.270Z,17.6
2017-10-16T03:18:28.650Z,17.6
2017-10-16T03:19:31.028Z,17.6
2017-10-16T03:20:33.405Z,17.6
2017-10-16T03:21:35.783Z,17.6
2017-10-16T03:22:38.508Z,17.6
2017-10-16T03:23:40.899Z,17.6
2017-10-16T03:24:43.272Z,17.6
2017-10-16T03:25:45.650Z,17.6
2017-10-16T03:26:48.016Z,17.6
2017-10-16T03:27:50.399Z,17.6
2017-10-16T03:28:52.785Z,17.5
2017-10-16T03:29:55.160Z,17.5
2017-10-16T03:30:57.545Z,17.5
2017-10-16T03:31:59.926Z,17.5
2017-10-16T03:33:02.292Z,17.5
2017-10-16T03:34:04.668Z,17.5
2017-10-16T03:35:07.044Z,17.5
2017-10-16T03:36:09.422Z,17.5
2017-10-16T03:37:11.809Z,17.5
2017-10-16T03:38:14.184Z,17.5
2017-10-16T03:39:16.555Z,17.4
2017-10-16T03:40:18.942Z,17.5
2017-10-16T03:41:21.321Z,17.5
2017-10-16T03:42:23.695Z,17.4
2017-10-16T03:43:26.074Z,17.5
2017-10-16T03:44:28.811Z,17.4
2017-10-16T03:45:31.194Z,17.4
2017-10-16T03:46:34.289Z,17.4
2017-10-16T03:47:36.662Z,17.4
2017-10-16T03:48:39.042Z,17.4
2017-10-16T03:49:41.431Z,17.4
2017-10-16T03:50:43.817Z,17.4
2017-10-16T03:51:46.545Z,17.3
2017-10-16T03:52:49.287Z,17.4
2017-10-16T03:53:51.667Z,17.3
2017-10-16T03:54:54.050Z,17.3
2017-10-16T03:55:56.786Z,17.3
2017-10-16T03:56:59.507Z,17.3
2017-10-16T03:58:01.880Z,17.3
2017-10-16T03:59:04.278Z,17.3
2017-10-16T04:00:06.651Z,17.3
2017-10-16T04:01:09.034Z,17.3
2017-10-16T04:02:11.407Z,17.2
2017-10-16T04:03:13.790Z,17.3
2017-10-16T04:04:16.165Z,17.3
2017-10-16T04:05:18.543Z,17.2
2017-10-16T04:06:20.909Z,17.2
2017-10-16T04:07:23.294Z,17.2
2017-10-16T04:08:25.669Z,17.2
2017-10-16T04:09:28.050Z,17.2
2017-10-16T04:10:30.425Z,17.2
2017-10-16T04:11:32.801Z,17.2
2017-10-16T04:12:35.205Z,17.2
2017-10-16T04:13:37.981Z,17.2
2017-10-16T04:14:40.344Z,17.2
2017-10-16T04:15:42.737Z,17.2
2017-10-16T04:16:45.118Z,17.2
2017-10-16T04:17:47.490Z,17.2
2017-10-16T04:18:49.862Z,17.2
2017-10-16T04:19:52.247Z,17.2
2017-10-16T04:20:54.622Z,17.2
2017-10-16T04:21:57.010Z,17.2
2017-10-16T04:22:59.727Z,17.2
2017-10-16T04:24:02.106Z,17.2
2017-10-16T04:25:04.491Z,17.2
2017-10-16T04:26:06.870Z,17.2
2017-10-16T04:27:09.251Z,17.2
2017-10-16T04:28:11.627Z,17.2
2017-10-16T04:29:14.362Z,17.2
2017-10-16T04:30:16.729Z,17.2
2017-10-16T04:31:19.104Z,17.2
2017-10-16T04:32:21.484Z,17.2
2017-10-16T04:33:24.210Z,17.1
2017-10-16T04:34:26.585Z,17.1
2017-10-16T04:35:28.964Z,17.2
2017-10-16T04:36:31.336Z,17.1
2017-10-16T04:37:33.727Z,17.1
2017-10-16T04:38:36.207Z,17.2
2017-10-16T04:39:39.081Z,17.2
2017-10-16T04:40:44.707Z,17.2
2017-10-16T04:41:48.465Z,17.1
2017-10-16T04:42:53.222Z,17.1
2017-10-16T04:43:55.749Z,17.2
2017-10-16T04:44:58.165Z,17.2
2017-10-16T04:46:00.608Z,17.2
2017-10-16T04:47:03.393Z,17.2
2017-10-16T04:48:05.825Z,17.2
2017-10-16T04:49:08.366Z,17.2
2017-10-16T04:50:10.793Z,17.2
2017-10-16T04:51:13.216Z,17.2
2017-10-16T04:52:15.644Z,17.1
2017-10-16T04:53:18.072Z,17.2
2017-10-16T04:54:20.492Z,17.2
2017-10-16T04:55:22.921Z,17.1
2017-10-16T04:56:25.363Z,17.1
2017-10-16T04:57:27.910Z,17.1
2017-10-16T04:58:30.393Z,17.1
2017-10-16T04:59:32.798Z,17.1
2017-10-16T05:00:35.200Z,17.1
2017-10-16T05:01:37.696Z,17.1
2017-10-16T05:02:40.085Z,17.1
2017-10-16T05:03:42.856Z,17.1
2017-10-16T05:04:45.301Z,17.1
2017-10-16T05:05:47.681Z,17.1
2017-10-16T05:06:50.109Z,17.1
2017-10-16T05:07:52.555Z,17
2017-10-16T05:08:55.014Z,17.1
2017-10-16T05:09:57.439Z,17.1
2017-10-16T05:11:00.166Z,17.1
2017-10-16T05:12:02.960Z,17.1
2017-10-16T05:13:05.400Z,17.1
2017-10-16T05:14:07.804Z,17.1
2017-10-16T05:15:10.300Z,17.1
2017-10-16T05:16:12.797Z,17.1
2017-10-16T05:17:15.256Z,17.1
2017-10-16T05:18:17.772Z,17.1
2017-10-16T05:19:20.163Z,17.1
2017-10-16T05:20:22.710Z,17.1
2017-10-16T05:21:25.259Z,17.1
2017-10-16T05:22:27.730Z,17.1
2017-10-16T05:23:30.234Z,17.1
2017-10-16T05:24:32.643Z,17.1
2017-10-16T05:25:35.119Z,17.1
2017-10-16T05:26:37.644Z,17
2017-10-16T05:27:40.062Z,17
2017-10-16T05:28:42.512Z,17
2017-10-16T05:29:44.904Z,17
2017-10-16T05:30:47.311Z,17
2017-10-16T05:31:49.873Z,17
2017-10-16T05:32:52.286Z,17
2017-10-16T05:33:54.683Z,17
2017-10-16T05:34:57.523Z,17
2017-10-16T05:35:59.892Z,17
2017-10-16T05:37:02.276Z,17
2017-10-16T05:38:04.784Z,17
2017-10-16T05:39:07.219Z,17
2017-10-16T05:40:09.749Z,17
2017-10-16T05:41:12.228Z,16.9
2017-10-16T05:42:14.667Z,17
2017-10-16T05:43:17.055Z,17
2017-10-16T05:44:19.500Z,16.9
2017-10-16T05:45:21.966Z,17
2017-10-16T05:46:24.381Z,17
2017-10-16T05:47:26.798Z,17
2017-10-16T05:48:29.181Z,17
2017-10-16T05:49:31.764Z,16.9
2017-10-16T05:50:34.165Z,16.9
2017-10-16T05:51:36.592Z,16.9
2017-10-16T05:52:38.983Z,16.9
2017-10-16T05:53:41.379Z,16.9
2017-10-16T05:54:43.758Z,16.9
2017-10-16T05:55:46.236Z,16.9
2017-10-16T05:56:48.637Z,16.9
2017-10-16T05:57:51.051Z,16.9
2017-10-16T05:58:53.446Z,16.9
2017-10-16T05:59:55.851Z,16.8
2017-10-16T06:00:58.379Z,16.8
2017-10-16T06:02:00.809Z,16.8
2017-10-16T06:03:03.323Z,16.8
2017-10-16T06:04:06.089Z,16.8
2017-10-16T06:05:08.463Z,16.8
2017-10-16T06:06:10.877Z,16.8
2017-10-16T06:07:13.358Z,16.8
2017-10-16T06:08:15.749Z,16.8
2017-10-16T06:09:18.156Z,16.8
2017-10-16T06:10:20.610Z,16.8
2017-10-16T06:11:23.052Z,16.8
2017-10-16T06:12:25.542Z,16.8
2017-10-16T06:13:28.033Z,16.8
2017-10-16T06:14:30.457Z,16.8
2017-10-16T06:15:33.578Z,16.9
2017-10-16T06:16:35.981Z,16.8
2017-10-16T06:17:38.385Z,16.9
2017-10-16T06:18:40.784Z,16.9
2017-10-16T06:19:43.192Z,16.9
2017-10-16T06:20:45.948Z,16.9
2017-10-16T06:21:48.686Z,16.9
2017-10-16T06:22:51.118Z,16.9
2017-10-16T06:23:53.514Z,16.9
2017-10-16T06:24:55.997Z,16.9
2017-10-16T06:25:58.457Z,17
2017-10-16T06:27:00.894Z,17
2017-10-16T06:28:03.303Z,17
2017-10-16T06:29:05.715Z,17
2017-10-16T06:30:08.304Z,17
2017-10-16T06:31:10.718Z,17
2017-10-16T06:32:13.182Z,17
2017-10-16T06:33:15.731Z,17
2017-10-16T06:34:18.112Z,17
2017-10-16T06:35:20.962Z,17.1
2017-10-16T06:36:23.462Z,17.1
2017-10-16T06:37:25.930Z,17.2
2017-10-16T06:38:28.404Z,17.2
2017-10-16T06:39:30.872Z,17.2
2017-10-16T06:40:33.311Z,17.2
2017-10-16T06:41:35.793Z,17.3
2017-10-16T06:42:38.181Z,17.3
2017-10-16T06:43:40.581Z,17.3
2017-10-16T06:44:43.034Z,17.3
2017-10-16T06:45:45.450Z,17.3
2017-10-16T06:46:47.881Z,17.4
2017-10-16T06:47:50.284Z,17.4
2017-10-16T06:48:52.755Z,17.4
2017-10-16T06:49:55.131Z,17.4
2017-10-16T06:50:57.905Z,17.4
2017-10-16T06:52:00.301Z,17.4
2017-10-16T06:53:02.774Z,17.4
2017-10-16T06:54:05.507Z,17.5
2017-10-16T06:55:07.916Z,17.5
2017-10-16T06:56:10.800Z,17.5
2017-10-16T06:57:13.239Z,17.5
2017-10-16T06:58:15.668Z,17.6
2017-10-16T06:59:18.057Z,17.6
2017-10-16T07:00:20.845Z,17.6
2017-10-16T07:01:23.245Z,17.6
2017-10-16T07:02:25.677Z,17.6
2017-10-16T07:03:28.131Z,17.7
2017-10-16T07:04:30.653Z,17.7
2017-10-16T07:05:33.156Z,17.7
2017-10-16T07:06:35.648Z,17.7
2017-10-16T07:07:38.429Z,17.8
2017-10-16T07:08:40.803Z,17.8
2017-10-16T07:09:43.183Z,17.8
2017-10-16T07:10:45.565Z,17.9
2017-10-16T07:11:47.948Z,17.9
2017-10-16T07:12:50.321Z,17.9
2017-10-16T07:13:52.700Z,17.9
2017-10-16T07:14:55.070Z,18
2017-10-16T07:15:57.452Z,18
2017-10-16T07:17:00.187Z,18.1
2017-10-16T07:18:02.573Z,18.1
2017-10-16T07:19:04.948Z,18.2
2017-10-16T07:20:07.324Z,18.2
2017-10-16T07:21:09.697Z,18.3
2017-10-16T07:22:12.078Z,18.4
2017-10-16T07:23:14.453Z,18.6
2017-10-16T07:24:16.839Z,18.7
2017-10-16T07:25:19.221Z,18.8
2017-10-16T07:26:21.605Z,18.9
2017-10-16T07:27:24.336Z,19.1
2017-10-16T07:28:26.707Z,19.2
2017-10-16T07:29:29.091Z,19.4
2017-10-16T07:30:31.476Z,19.6
2017-10-16T07:31:33.858Z,19.7
2017-10-16T07:32:36.248Z,19.9
2017-10-16T07:33:38.631Z,20
2017-10-16T07:34:41.009Z,20.2
2017-10-16T07:35:43.406Z,20.3
2017-10-16T07:36:45.792Z,20.5
2017-10-16T07:37:48.168Z,20.6
2017-10-16T07:38:50.558Z,20.7
2017-10-16T07:39:52.943Z,20.8
2017-10-16T07:40:55.305Z,20.9
2017-10-16T07:41:57.692Z,21
2017-10-16T07:43:00.066Z,21.2
2017-10-16T07:44:02.454Z,21.3
2017-10-16T07:45:04.839Z,21.4
2017-10-16T07:46:07.219Z,21.5
2017-10-16T07:47:09.614Z,21.6
2017-10-16T07:48:11.994Z,21.8
2017-10-16T07:49:14.370Z,21.9
2017-10-16T07:50:16.765Z,22
2017-10-16T07:51:19.148Z,22.1
2017-10-16T07:52:21.525Z,22.1
2017-10-16T07:53:23.922Z,22.2
2017-10-16T07:54:26.316Z,22.3
2017-10-16T07:55:28.696Z,22.3
2017-10-16T07:56:31.082Z,22.4
2017-10-16T07:57:33.457Z,22.5
2017-10-16T07:58:35.849Z,22.6
2017-10-16T07:59:38.234Z,22.6
2017-10-16T08:00:40.627Z,22.8
2017-10-16T08:01:43.005Z,22.8
2017-10-16T08:02:45.391Z,23
2017-10-16T08:03:47.782Z,23
2017-10-16T08:04:50.170Z,23.1
2017-10-16T08:05:52.552Z,23.2
2017-10-16T08:06:54.939Z,23.3
2017-10-16T08:07:57.668Z,23.4
2017-10-16T08:09:00.409Z,23.5
2017-10-16T08:10:02.792Z,23.6
2017-10-16T08:11:05.173Z,23.7
2017-10-16T08:12:07.901Z,23.7
2017-10-16T08:13:10.294Z,23.8
2017-10-16T08:14:12.676Z,23.9
2017-10-16T08:15:15.076Z,23.9
2017-10-16T08:16:17.800Z,24
2017-10-16T08:17:20.188Z,24
2017-10-16T08:18:22.579Z,24
2017-10-16T08:19:24.965Z,24.1
2017-10-16T08:20:27.347Z,24.2
2017-10-16T08:21:29.734Z,24.3
2017-10-16T08:22:32.472Z,24.3
2017-10-16T08:23:34.867Z,24.4
2017-10-16T08:24:37.602Z,24.4
2017-10-16T08:25:39.986Z,24.4
2017-10-16T08:26:42.366Z,24.5
2017-10-16T08:27:44.746Z,24.6
2017-10-16T08:28:47.138Z,24.7
2017-10-16T08:29:49.529Z,24.7
2017-10-16T08:30:51.920Z,24.8
2017-10-16T08:31:54.316Z,24.9
2017-10-16T08:32:56.691Z,25
2017-10-16T08:33:59.084Z,25
2017-10-16T08:35:01.819Z,25
2017-10-16T08:36:04.575Z,25.1
2017-10-16T08:37:06.964Z,25.1
2017-10-16T08:38:09.353Z,25.1
2017-10-16T08:39:11.743Z,25.2
2017-10-16T08:40:14.139Z,25.2
2017-10-16T08:41:16.524Z,25.3
2017-10-16T08:42:18.908Z,25.3
2017-10-16T08:43:21.302Z,25.4
2017-10-16T08:44:23.687Z,25.4
2017-10-16T08:45:26.081Z,25.5
2017-10-16T08:46:28.468Z,25.5
2017-10-16T08:47:30.851Z,25.5
2017-10-16T08:48:33.242Z,25.5
2017-10-16T08:49:35.631Z,25.5
2017-10-16T08:50:38.368Z,25.6
2017-10-16T08:51:40.758Z,25.7
2017-10-16T08:52:43.150Z,25.7
2017-10-16T08:53:45.890Z,25.7
2017-10-16T08:54:48.289Z,25.8
2017-10-16T08:55:50.676Z,25.9
2017-10-16T08:56:53.055Z,25.9
2017-10-16T08:57:55.445Z,25.9
2017-10-16T08:58:57.849Z,26.1
2017-10-16T09:00:00.950Z,26.1
2017-10-16T09:01:03.327Z,26.1
2017-10-16T09:02:05.712Z,26.2
2017-10-16T09:03:08.496Z,26.3
2017-10-16T09:04:10.895Z,26.4
2017-10-16T09:05:13.289Z,26.5
2017-10-16T09:06:15.677Z,26.6
2017-10-16T09:07:18.079Z,26.7
2017-10-16T09:08:20.491Z,26.7
2017-10-16T09:09:22.888Z,26.8
2017-10-16T09:10:25.640Z,26.9
2017-10-16T09:11:28.026Z,26.9
2017-10-16T09:12:30.424Z,26.9
2017-10-16T09:13:32.830Z,26.9
2017-10-16T09:14:35.575Z,27
2017-10-16T09:15:37.966Z,27
2017-10-16T09:16:40.360Z,27.1
2017-10-16T09:17:42.764Z,27.1
2017-10-16T09:18:45.168Z,27.3
2017-10-16T09:19:47.565Z,27.3
2017-10-16T09:20:49.947Z,27.4
2017-10-16T09:21:52.345Z,27.4
2017-10-16T09:22:54.752Z,27.5
2017-10-16T09:23:57.156Z,27.5
2017-10-16T09:25:00.250Z,27.6
2017-10-16T09:26:02.649Z,27.7
2017-10-16T09:27:05.053Z,27.8
2017-10-16T09:28:07.452Z,27.9
2017-10-16T09:29:10.205Z,27.9
2017-10-16T09:30:12.957Z,28
2017-10-16T09:31:15.716Z,28.1
2017-10-16T09:32:18.127Z,28.2
2017-10-16T09:33:20.510Z,28.3
2017-10-16T09:34:22.903Z,28.4
2017-10-16T09:35:25.305Z,28.5
2017-10-16T09:36:27.700Z,28.5
2017-10-16T09:37:30.097Z,28.6
2017-10-16T09:38:32.485Z,28.6
2017-10-16T09:39:34.887Z,28.6
2017-10-16T09:40:37.626Z,28.6
2017-10-16T09:41:40.376Z,28.7
2017-10-16T09:42:42.767Z,28.8
2017-10-16T09:43:45.157Z,28.9
2017-10-16T09:44:47.901Z,29
2017-10-16T09:45:50.303Z,29.1
2017-10-16T09:46:52.691Z,29.1
2017-10-16T09:47:55.095Z,29.2
2017-10-16T09:48:57.492Z,29.2
2017-10-16T09:49:59.879Z,29.3
2017-10-16T09:51:02.267Z,29.3
2017-10-16T09:52:04.666Z,29.3
2017-10-16T09:53:07.068Z,29.3
2017-10-16T09:54:09.470Z,29.3
2017-10-16T09:55:11.849Z,29.3
2017-10-16T09:56:14.252Z,29.3
2017-10-16T09:57:16.656Z,29.4
2017-10-16T09:58:19.389Z,29.4
2017-10-16T09:59:21.785Z,29.5
2017-10-16T10:00:24.180Z,29.6
2017-10-16T10:01:26.562Z,29.6
2017-10-16T10:02:28.970Z,29.6
2017-10-16T10:03:31.741Z,29.7
2017-10-16T10:04:34.144Z,29.7
2017-10-16T10:05:36.544Z,29.8
2017-10-16T10:06:39.297Z,29.9
2017-10-16T10:07:41.695Z,30
2017-10-16T10:08:44.095Z,30.1
2017-10-16T10:09:46.485Z,30.2
2017-10-16T10:10:49.246Z,30.4
2017-10-16T10:11:51.639Z,30.5
2017-10-16T10:12:54.038Z,30.6
2017-10-16T10:13:56.682Z,30.6
2017-10-16T10:14:59.092Z,30.7
2017-10-16T10:16:01.490Z,30.8
2017-10-16T10:17:03.885Z,30.8
2017-10-16T10:18:06.278Z,30.9
2017-10-16T10:19:08.680Z,30.9
2017-10-16T10:20:11.079Z,31
2017-10-16T10:21:13.480Z,31.1
2017-10-16T10:22:15.882Z,31.2
2017-10-16T10:23:18.622Z,31.3
2017-10-16T10:24:21.372Z,31.4
2017-10-16T10:25:23.765Z,31.5
2017-10-16T10:26:26.159Z,31.6
2017-10-16T10:27:28.562Z,31.7
2017-10-16T10:28:30.958Z,31.7
2017-10-16T10:29:33.344Z,31.8
2017-10-16T10:30:35.743Z,31.8
2017-10-16T10:31:38.140Z,31.8
2017-10-16T10:32:40.536Z,31.8
2017-10-16T10:33:42.940Z,31.8
2017-10-16T10:34:45.322Z,31.8
2017-10-16T10:35:48.077Z,31.8
2017-10-16T10:36:50.486Z,31.9
2017-10-16T10:37:52.884Z,31.9
2017-10-16T10:38:55.282Z,31.8
2017-10-16T10:39:57.680Z,31.8
2017-10-16T10:41:00.083Z,31.8
2017-10-16T10:42:02.477Z,31.8
2017-10-16T10:43:04.872Z,31.8
2017-10-16T10:44:07.266Z,31.8
2017-10-16T10:45:09.670Z,31.8
2017-10-16T10:46:12.080Z,31.8
2017-10-16T10:47:14.471Z,31.8
2017-10-16T10:48:16.869Z,31.8
2017-10-16T10:49:19.265Z,31.8
2017-10-16T10:50:21.671Z,31.8
2017-10-16T10:51:24.070Z,31.8
2017-10-16T10:52:26.472Z,31.9
2017-10-16T10:53:28.856Z,31.9
2017-10-16T10:54:31.252Z,31.9
2017-10-16T10:55:33.655Z,32
2017-10-16T10:56:36.057Z,32
2017-10-16T10:57:38.447Z,32.1
2017-10-16T10:58:40.857Z,32.1
2017-10-16T10:59:43.250Z,32.2
2017-10-16T11:00:45.654Z,32.3
2017-10-16T11:01:48.057Z,32.3
2017-10-16T11:02:50.458Z,32.3
2017-10-16T11:03:53.196Z,32.5
2017-10-16T11:04:55.597Z,32.5
2017-10-16T11:05:57.989Z,32.5
2017-10-16T11:07:00.393Z,32.5
2017-10-16T11:08:02.793Z,32.5
2017-10-16T11:09:05.187Z,32.5
2017-10-16T11:10:07.598Z,32.6
2017-10-16T11:11:09.996Z,32.6
2017-10-16T11:12:12.379Z,32.7
2017-10-16T11:13:14.779Z,32.7
2017-10-16T11:14:17.180Z,32.8
2017-10-16T11:15:19.959Z,32.8
2017-10-16T11:16:22.358Z,32.9
2017-10-16T11:17:25.465Z,33
2017-10-16T11:18:27.869Z,33
2017-10-16T11:19:30.283Z,33.1
2017-10-16T11:20:32.683Z,33.1
2017-10-16T11:21:35.069Z,33.1
2017-10-16T11:22:37.469Z,33.1
2017-10-16T11:23:39.870Z,33.2
2017-10-16T11:24:42.259Z,33.2
2017-10-16T11:25:44.660Z,33.2
2017-10-16T11:26:47.070Z,33.2
2017-10-16T11:27:49.464Z,33.2
2017-10-16T11:28:51.872Z,33.2
2017-10-16T11:29:54.275Z,33.2
2017-10-16T11:30:56.682Z,33.2
2017-10-16T11:31:59.086Z,33.3
2017-10-16T11:33:01.481Z,33.3
2017-10-16T11:34:03.869Z,33.4
2017-10-16T11:35:06.274Z,33.4
2017-10-16T11:36:08.676Z,33.5
2017-10-16T11:37:11.075Z,33.6
2017-10-16T11:38:13.478Z,33.6
2017-10-16T11:39:16.238Z,33.7
2017-10-16T11:40:18.637Z,33.7
2017-10-16T11:41:21.036Z,33.7
2017-10-16T11:42:23.440Z,33.6
2017-10-16T11:43:25.841Z,33.6
2017-10-16T11:44:28.235Z,33.5
2017-10-16T11:45:30.649Z,33.4
2017-10-16T11:46:33.041Z,33.4
2017-10-16T11:47:35.449Z,33.3
2017-10-16T11:48:37.846Z,33.3
2017-10-16T11:49:40.246Z,33.3
2017-10-16T11:50:42.640Z,33.3
2017-10-16T11:51:45.046Z,33.3
2017-10-16T11:52:47.442Z,33.4
2017-10-16T11:53:49.848Z,33.4
2017-10-16T11:54:52.247Z,33.4
2017-10-16T11:55:54.638Z,33.4
2017-10-16T11:56:57.040Z,33.4
2017-10-16T11:57:59.430Z,33.3
2017-10-16T11:59:01.830Z,33.3
2017-10-16T12:00:04.239Z,33.3
2017-10-16T12:01:06.638Z,33.3
2017-10-16T12:02:09.043Z,33.3
2017-10-16T12:03:11.444Z,33.2
2017-10-16T12:04:13.839Z,33.1
2017-10-16T12:05:16.243Z,32.9
2017-10-16T12:06:18.649Z,32.9
2017-10-16T12:07:21.044Z,32.8
2017-10-16T12:08:23.445Z,32.6
2017-10-16T12:09:26.200Z,32.6
2017-10-16T12:10:28.597Z,32.5
2017-10-16T12:11:31.006Z,32.5
2017-10-16T12:12:33.405Z,32.5
2017-10-16T12:13:35.806Z,32.5
2017-10-16T12:14:38.564Z,32.5
2017-10-16T12:15:41.651Z,32.5
2017-10-16T12:16:44.052Z,32.6
2017-10-16T12:17:46.456Z,32.6
2017-10-16T12:18:48.837Z,32.6
2017-10-16T12:19:51.235Z,32.7
2017-10-16T12:20:53.639Z,32.6
2017-10-16T12:21:56.044Z,32.6
2017-10-16T12:22:58.440Z,32.5
2017-10-16T12:24:01.221Z,32.4
2017-10-16T12:25:03.614Z,32.3
2017-10-16T12:26:06.013Z,32.3
2017-10-16T12:27:08.415Z,32.2
2017-10-16T12:28:10.810Z,32.1
2017-10-16T12:29:13.209Z,32.1
2017-10-16T12:30:15.612Z,32.1
2017-10-16T12:31:17.999Z,32.1
2017-10-16T12:32:20.405Z,32.1
2017-10-16T12:33:22.805Z,32.1
2017-10-16T12:34:25.217Z,32.1
2017-10-16T12:35:27.609Z,32.2
2017-10-16T12:36:30.007Z,32.2
2017-10-16T12:37:32.415Z,32.3
2017-10-16T12:38:34.822Z,32.2
2017-10-16T12:39:37.222Z,32.2
2017-10-16T12:40:39.626Z,32.2
2017-10-16T12:41:42.020Z,32.3
2017-10-16T12:42:44.432Z,32.3
2017-10-16T12:43:46.832Z,32.3
2017-10-16T12:44:49.223Z,32.3
2017-10-16T12:45:51.614Z,32.3
2017-10-16T12:46:54.012Z,32.4
2017-10-16T12:47:56.755Z,32.4
2017-10-16T12:48:59.153Z,32.5
2017-10-16T12:50:01.542Z,32.5
2017-10-16T12:51:03.940Z,32.4
2017-10-16T12:52:06.353Z,32.4
2017-10-16T12:53:08.745Z,32.4
2017-10-16T12:54:11.151Z,32.3
2017-10-16T12:55:13.551Z,32.2
2017-10-16T12:56:15.943Z,32.1
2017-10-16T12:57:18.334Z,32
2017-10-16T12:58:20.728Z,32
2017-10-16T12:59:23.473Z,32
2017-10-16T13:00:25.867Z,32
2017-10-16T13:01:28.266Z,31.9
2017-10-16T13:02:30.665Z,31.9
2017-10-16T13:03:33.062Z,31.8
2017-10-16T13:04:35.462Z,31.8
2017-10-16T13:05:37.865Z,31.8
2017-10-16T13:06:40.260Z,31.8
2017-10-16T13:07:43.026Z,31.7
2017-10-16T13:08:45.773Z,31.6
2017-10-16T13:09:48.171Z,31.5
2017-10-16T13:10:50.581Z,31.4
2017-10-16T13:11:52.972Z,31.4
2017-10-16T13:12:55.731Z,31.3
2017-10-16T13:13:58.238Z,31.2
2017-10-16T13:15:00.631Z,31.2
2017-10-16T13:16:03.390Z,31.1
2017-10-16T13:17:05.793Z,31.1
2017-10-16T13:18:08.180Z,31
2017-10-16T13:19:10.583Z,31
2017-10-16T13:20:12.979Z,31
2017-10-16T13:21:15.377Z,31
2017-10-16T13:22:17.768Z,31
2017-10-16T13:23:20.173Z,31
2017-10-16T13:24:22.567Z,31
2017-10-16T13:25:24.959Z,31.1
2017-10-16T13:26:27.353Z,31.1
2017-10-16T13:27:29.745Z,31
2017-10-16T13:28:32.148Z,31
2017-10-16T13:29:34.550Z,31
2017-10-16T13:30:36.943Z,31
2017-10-16T13:31:39.339Z,31
2017-10-16T13:32:41.745Z,31
2017-10-16T13:33:44.145Z,31
2017-10-16T13:34:46.884Z,30.9
2017-10-16T13:35:49.279Z,30.9
2017-10-16T13:36:51.669Z,30.9
2017-10-16T13:37:54.070Z,30.8
2017-10-16T13:38:56.823Z,30.8
2017-10-16T13:39:59.211Z,30.8
2017-10-16T13:41:01.974Z,30.7
2017-10-16T13:42:04.377Z,30.7
2017-10-16T13:43:07.130Z,30.7
2017-10-16T13:44:09.524Z,30.7
2017-10-16T13:45:11.926Z,30.6
2017-10-16T13:46:14.320Z,30.6
2017-10-16T13:47:16.726Z,30.5
2017-10-16T13:48:19.121Z,30.5
2017-10-16T13:49:21.509Z,30.4
2017-10-16T13:50:23.899Z,30.4
2017-10-16T13:51:26.298Z,30.4
2017-10-16T13:52:28.701Z,30.3
2017-10-16T13:53:31.095Z,30.4
2017-10-16T13:54:33.490Z,30.4
2017-10-16T13:55:36.605Z,30.4
2017-10-16T13:56:39.000Z,30.4